sensor_id;sensor_type;location;lat;lon;timestamp;temperature;humidity
22578;DHT22;11455;52.390;13.028;2022-11-04T00:01:28;12.00;99.90
22578;DHT22;11455;52.390;13.028;2022-11-04T00:03:53;12.00;99.90
22578;DHT22;11455;52.390;13.028;2022-11-04T00:06:19;11.90;99.90
22578;DHT22;11455;52.390;13.028;2022-11-04T00:08:51;12.00;99.90
22578;DHT22;11455;52.390;13.028;2022-11-04T00:11:19;12.00;99.90
22578;DHT22;11455;52.390;13.028;2022-11-04T00:14:07;12.00;99.90
22578;DHT22;11455;52.390;13.028;2022-11-04T00:16:35;12.00;99.90
22578;DHT22;11455;52.390;13.028;2022-11-04T00:19:19;12.00;99.90
22578;DHT22;11455;52.390;13.028;2022-11-04T00:21:45;12.00;99.90
22578;DHT22;11455;52.390;13.028;2022-11-04T00:24:29;12.00;99.90
22578;DHT22;11455;52.390;13.028;2022-11-04T00:27:07;12.00;99.90
22578;DHT22;11455;52.390;13.028;2022-11-04T00:29:51;12.00;99.90
22578;DHT22;11455;52.390;13.028;2022-11-04T00:32:19;12.00;99.90
22578;DHT22;11455;52.390;13.028;2022-11-04T00:35:04;12.00;99.90
22578;DHT22;11455;52.390;13.028;2022-11-04T00:37:29;12.00;99.90
22578;DHT22;11455;52.390;13.028;2022-11-04T00:39:55;12.00;99.90
22578;DHT22;11455;52.390;13.028;2022-11-04T00:42:21;11.90;99.90
22578;DHT22;11455;52.390;13.028;2022-11-04T00:44:46;11.90;99.90
22578;DHT22;11455;52.390;13.028;2022-11-04T00:47:12;11.90;99.90
22578;DHT22;11455;52.390;13.028;2022-11-04T00:49:37;11.90;99.90
22578;DHT22;11455;52.390;13.028;2022-11-04T00:52:05;11.90;99.90
22578;DHT22;11455;52.390;13.028;2022-11-04T00:54:30;11.80;99.90
22578;DHT22;11455;52.390;13.028;2022-11-04T00:56:56;11.80;99.90
22578;DHT22;11455;52.390;13.028;2022-11-04T00:59:22;11.80;99.90
22578;DHT22;11455;52.390;13.028;2022-11-04T01:01:47;11.80;99.90
22578;DHT22;11455;52.390;13.028;2022-11-04T01:04:13;11.80;99.90
22578;DHT22;11455;52.390;13.028;2022-11-04T01:06:38;11.80;99.90
22578;DHT22;11455;52.390;13.028;2022-11-04T01:09:05;11.80;99.90
22578;DHT22;11455;52.390;13.028;2022-11-04T01:11:32;11.80;99.90
22578;DHT22;11455;52.390;13.028;2022-11-04T01:13:58;11.80;99.90
22578;DHT22;11455;52.390;13.028;2022-11-04T01:16:24;11.80;99.90
22578;DHT22;11455;52.390;13.028;2022-11-04T01:18:50;11.80;99.90
22578;DHT22;11455;52.390;13.028;2022-11-04T01:21:16;11.70;99.90
22578;DHT22;11455;52.390;13.028;2022-11-04T01:23:42;11.70;99.90
22578;DHT22;11455;52.390;13.028;2022-11-04T01:26:14;11.70;99.90
22578;DHT22;11455;52.390;13.028;2022-11-04T01:28:40;11.80;99.90
22578;DHT22;11455;52.390;13.028;2022-11-04T01:31:09;11.80;99.90
22578;DHT22;11455;52.390;13.028;2022-11-04T01:33:35;11.90;99.90
22578;DHT22;11455;52.390;13.028;2022-11-04T01:36:01;11.80;99.90
22578;DHT22;11455;52.390;13.028;2022-11-04T01:38:27;11.80;99.90
22578;DHT22;11455;52.390;13.028;2022-11-04T01:40:53;11.90;99.90
22578;DHT22;11455;52.390;13.028;2022-11-04T01:43:19;11.80;99.90
22578;DHT22;11455;52.390;13.028;2022-11-04T01:45:46;11.80;99.90
22578;DHT22;11455;52.390;13.028;2022-11-04T01:48:14;11.80;99.90
22578;DHT22;11455;52.390;13.028;2022-11-04T01:50:43;11.90;99.90
22578;DHT22;11455;52.390;13.028;2022-11-04T01:53:11;11.80;99.90
22578;DHT22;11455;52.390;13.028;2022-11-04T01:55:42;11.90;99.90
22578;DHT22;11455;52.390;13.028;2022-11-04T01:58:10;11.90;99.90
22578;DHT22;11455;52.390;13.028;2022-11-04T02:00:39;11.80;99.90
22578;DHT22;11455;52.390;13.028;2022-11-04T02:03:06;11.80;99.90
22578;DHT22;11455;52.390;13.028;2022-11-04T02:05:35;11.80;99.90
22578;DHT22;11455;52.390;13.028;2022-11-04T02:08:02;11.80;99.90
22578;DHT22;11455;52.390;13.028;2022-11-04T02:10:28;11.70;99.90
22578;DHT22;11455;52.390;13.028;2022-11-04T02:12:54;11.70;99.90
22578;DHT22;11455;52.390;13.028;2022-11-04T02:18:17;11.60;99.90
22578;DHT22;11455;52.390;13.028;2022-11-04T02:26:05;11.70;99.90
22578;DHT22;11455;52.390;13.028;2022-11-04T02:28:36;11.70;99.90
22578;DHT22;11455;52.390;13.028;2022-11-04T02:36:00;11.70;99.90
22578;DHT22;11455;52.390;13.028;2022-11-04T02:38:31;11.70;99.90
22578;DHT22;11455;52.390;13.028;2022-11-04T02:45:58;11.70;99.90
22578;DHT22;11455;52.390;13.028;2022-11-04T02:53:27;11.80;99.90
22578;DHT22;11455;52.390;13.028;2022-11-04T02:55:54;11.80;99.90
22578;DHT22;11455;52.390;13.028;2022-11-04T02:58:22;11.80;99.90
22578;DHT22;11455;52.390;13.028;2022-11-04T03:00:50;11.80;99.90
22578;DHT22;11455;52.390;13.028;2022-11-04T03:03:18;11.70;99.90
22578;DHT22;11455;52.390;13.028;2022-11-04T03:05:47;11.60;99.90
22578;DHT22;11455;52.390;13.028;2022-11-04T03:08:32;11.60;99.90
22578;DHT22;11455;52.390;13.028;2022-11-04T03:11:03;11.70;99.90
22578;DHT22;11455;52.390;13.028;2022-11-04T03:13:33;11.80;99.90
22578;DHT22;11455;52.390;13.028;2022-11-04T03:16:00;11.80;99.90
22578;DHT22;11455;52.390;13.028;2022-11-04T03:20:56;11.90;99.90
22578;DHT22;11455;52.390;13.028;2022-11-04T03:23:23;11.90;99.90
22578;DHT22;11455;52.390;13.028;2022-11-04T03:25:49;11.90;99.90
22578;DHT22;11455;52.390;13.028;2022-11-04T03:30:55;11.90;99.90
22578;DHT22;11455;52.390;13.028;2022-11-04T03:35:51;11.90;99.90
22578;DHT22;11455;52.390;13.028;2022-11-04T03:38:17;11.90;99.90
22578;DHT22;11455;52.390;13.028;2022-11-04T03:40:44;12.00;99.90
22578;DHT22;11455;52.390;13.028;2022-11-04T03:43:11;12.00;99.90
22578;DHT22;11455;52.390;13.028;2022-11-04T03:45:41;12.00;99.90
22578;DHT22;11455;52.390;13.028;2022-11-04T03:48:07;12.00;99.90
22578;DHT22;11455;52.390;13.028;2022-11-04T03:50:46;11.90;99.90
22578;DHT22;11455;52.390;13.028;2022-11-04T03:53:13;11.90;99.90
22578;DHT22;11455;52.390;13.028;2022-11-04T04:01:22;11.90;99.90
22578;DHT22;11455;52.390;13.028;2022-11-04T04:06:25;11.90;99.90
22578;DHT22;11455;52.390;13.028;2022-11-04T04:08:52;11.90;99.90
22578;DHT22;11455;52.390;13.028;2022-11-04T04:13:56;11.90;99.90
22578;DHT22;11455;52.390;13.028;2022-11-04T04:16:26;11.90;99.90
22578;DHT22;11455;52.390;13.028;2022-11-04T04:18:55;11.90;99.90
22578;DHT22;11455;52.390;13.028;2022-11-04T04:21:23;11.90;99.90
22578;DHT22;11455;52.390;13.028;2022-11-04T04:23:51;12.00;99.90
22578;DHT22;11455;52.390;13.028;2022-11-04T04:26:36;12.00;99.90
22578;DHT22;11455;52.390;13.028;2022-11-04T04:29:21;12.00;99.90
22578;DHT22;11455;52.390;13.028;2022-11-04T04:31:47;12.00;99.90
22578;DHT22;11455;52.390;13.028;2022-11-04T04:34:26;12.10;99.90
22578;DHT22;11455;52.390;13.028;2022-11-04T04:37:04;12.10;99.90
22578;DHT22;11455;52.390;13.028;2022-11-04T04:40:14;12.10;99.90
22578;DHT22;11455;52.390;13.028;2022-11-04T04:42:38;12.10;99.90
22578;DHT22;11455;52.390;13.028;2022-11-04T04:45:26;12.00;99.90
22578;DHT22;11455;52.390;13.028;2022-11-04T04:47:53;12.00;99.90
22578;DHT22;11455;52.390;13.028;2022-11-04T04:50:19;12.10;99.90
22578;DHT22;11455;52.390;13.028;2022-11-04T04:52:48;12.10;99.90
22578;DHT22;11455;52.390;13.028;2022-11-04T04:55:15;12.10;99.90
22578;DHT22;11455;52.390;13.028;2022-11-04T04:57:41;12.10;99.90
22578;DHT22;11455;52.390;13.028;2022-11-04T05:00:08;12.10;99.90
22578;DHT22;11455;52.390;13.028;2022-11-04T05:02:34;12.20;99.90
22578;DHT22;11455;52.390;13.028;2022-11-04T05:05:00;12.20;99.90
22578;DHT22;11455;52.390;13.028;2022-11-04T05:07:27;12.20;99.90
22578;DHT22;11455;52.390;13.028;2022-11-04T05:09:55;12.10;99.90
22578;DHT22;11455;52.390;13.028;2022-11-04T05:12:21;12.00;99.90
22578;DHT22;11455;52.390;13.028;2022-11-04T05:14:46;12.10;99.90
22578;DHT22;11455;52.390;13.028;2022-11-04T05:17:14;12.10;99.90
22578;DHT22;11455;52.390;13.028;2022-11-04T05:19:40;12.10;99.90
22578;DHT22;11455;52.390;13.028;2022-11-04T05:22:05;12.20;99.90
22578;DHT22;11455;52.390;13.028;2022-11-04T05:24:31;12.20;99.90
22578;DHT22;11455;52.390;13.028;2022-11-04T05:26:56;12.20;99.90
22578;DHT22;11455;52.390;13.028;2022-11-04T05:29:22;12.20;99.90
22578;DHT22;11455;52.390;13.028;2022-11-04T05:31:48;12.20;99.90
22578;DHT22;11455;52.390;13.028;2022-11-04T05:34:13;12.20;99.90
22578;DHT22;11455;52.390;13.028;2022-11-04T05:36:39;12.20;99.90
22578;DHT22;11455;52.390;13.028;2022-11-04T05:39:05;12.20;99.90
22578;DHT22;11455;52.390;13.028;2022-11-04T05:41:31;12.20;99.90
22578;DHT22;11455;52.390;13.028;2022-11-04T05:43:57;12.20;99.90
22578;DHT22;11455;52.390;13.028;2022-11-04T05:46:23;12.20;99.90
22578;DHT22;11455;52.390;13.028;2022-11-04T05:48:49;12.20;99.90
22578;DHT22;11455;52.390;13.028;2022-11-04T05:51:16;12.20;99.90
22578;DHT22;11455;52.390;13.028;2022-11-04T05:53:42;12.20;99.90
22578;DHT22;11455;52.390;13.028;2022-11-04T05:56:07;12.10;99.90
22578;DHT22;11455;52.390;13.028;2022-11-04T05:58:33;12.10;99.90
22578;DHT22;11455;52.390;13.028;2022-11-04T06:03:39;12.00;99.90
22578;DHT22;11455;52.390;13.028;2022-11-04T06:06:05;12.00;99.90
22578;DHT22;11455;52.390;13.028;2022-11-04T06:08:30;12.10;99.90
22578;DHT22;11455;52.390;13.028;2022-11-04T06:10:56;12.10;99.90
22578;DHT22;11455;52.390;13.028;2022-11-04T06:13:22;12.10;1.00
22578;DHT22;11455;52.390;13.028;2022-11-04T06:15:47;12.10;1.00
22578;DHT22;11455;52.390;13.028;2022-11-04T06:18:13;12.20;1.00
22578;DHT22;11455;52.390;13.028;2022-11-04T06:20:38;12.20;1.00
22578;DHT22;11455;52.390;13.028;2022-11-04T06:23:04;12.20;1.00
22578;DHT22;11455;52.390;13.028;2022-11-04T06:25:29;12.20;1.00
22578;DHT22;11455;52.390;13.028;2022-11-04T06:27:55;12.20;1.00
22578;DHT22;11455;52.390;13.028;2022-11-04T06:30:21;12.30;1.00
22578;DHT22;11455;52.390;13.028;2022-11-04T06:32:49;12.40;1.00
22578;DHT22;11455;52.390;13.028;2022-11-04T06:35:15;12.40;1.00
22578;DHT22;11455;52.390;13.028;2022-11-04T06:37:40;12.40;1.00
22578;DHT22;11455;52.390;13.028;2022-11-04T06:40:06;12.30;1.00
22578;DHT22;11455;52.390;13.028;2022-11-04T06:42:32;12.30;1.00
22578;DHT22;11455;52.390;13.028;2022-11-04T06:44:58;12.30;1.00
22578;DHT22;11455;52.390;13.028;2022-11-04T06:47:23;12.30;1.00
22578;DHT22;11455;52.390;13.028;2022-11-04T06:49:51;12.40;1.00
22578;DHT22;11455;52.390;13.028;2022-11-04T06:52:17;12.30;1.00
22578;DHT22;11455;52.390;13.028;2022-11-04T06:54:42;12.20;1.00
22578;DHT22;11455;52.390;13.028;2022-11-04T06:57:09;12.30;1.00
22578;DHT22;11455;52.390;13.028;2022-11-04T06:59:35;12.20;1.00
22578;DHT22;11455;52.390;13.028;2022-11-04T07:02:00;12.20;1.00
22578;DHT22;11455;52.390;13.028;2022-11-04T07:04:26;12.20;1.00
22578;DHT22;11455;52.390;13.028;2022-11-04T07:06:52;12.20;1.00
22578;DHT22;11455;52.390;13.028;2022-11-04T07:09:17;12.20;1.00
22578;DHT22;11455;52.390;13.028;2022-11-04T07:11:45;12.20;1.00
22578;DHT22;11455;52.390;13.028;2022-11-04T07:14:11;12.20;1.00
22578;DHT22;11455;52.390;13.028;2022-11-04T07:16:37;12.20;1.00
22578;DHT22;11455;52.390;13.028;2022-11-04T07:19:05;12.30;1.00
22578;DHT22;11455;52.390;13.028;2022-11-04T07:21:31;12.30;1.00
22578;DHT22;11455;52.390;13.028;2022-11-04T07:23:56;12.30;1.00
22578;DHT22;11455;52.390;13.028;2022-11-04T07:26:22;12.30;1.00
22578;DHT22;11455;52.390;13.028;2022-11-04T07:28:50;12.30;1.00
22578;DHT22;11455;52.390;13.028;2022-11-04T07:31:16;12.30;1.00
22578;DHT22;11455;52.390;13.028;2022-11-04T07:33:42;12.30;1.00
22578;DHT22;11455;52.390;13.028;2022-11-04T07:36:09;12.30;1.00
22578;DHT22;11455;52.390;13.028;2022-11-04T07:38:35;12.30;1.00
22578;DHT22;11455;52.390;13.028;2022-11-04T07:41:01;12.30;1.00
22578;DHT22;11455;52.390;13.028;2022-11-04T07:43:27;12.30;1.00
22578;DHT22;11455;52.390;13.028;2022-11-04T07:48:27;12.20;1.00
22578;DHT22;11455;52.390;13.028;2022-11-04T07:50:56;12.20;1.00
22578;DHT22;11455;52.390;13.028;2022-11-04T07:53:22;12.30;1.00
22578;DHT22;11455;52.390;13.028;2022-11-04T07:55:48;12.30;1.00
22578;DHT22;11455;52.390;13.028;2022-11-04T07:58:16;12.30;1.00
22578;DHT22;11455;52.390;13.028;2022-11-04T08:00:42;12.40;1.00
22578;DHT22;11455;52.390;13.028;2022-11-04T08:03:10;12.40;1.00
22578;DHT22;11455;52.390;13.028;2022-11-04T08:05:35;12.40;1.00
22578;DHT22;11455;52.390;13.028;2022-11-04T08:08:02;12.40;1.00
22578;DHT22;11455;52.390;13.028;2022-11-04T08:10:28;12.40;1.00
22578;DHT22;11455;52.390;13.028;2022-11-04T08:12:54;12.40;1.00
22578;DHT22;11455;52.390;13.028;2022-11-04T08:15:19;12.40;1.00
22578;DHT22;11455;52.390;13.028;2022-11-04T08:17:45;12.40;1.00
22578;DHT22;11455;52.390;13.028;2022-11-04T08:20:10;12.50;1.00
22578;DHT22;11455;52.390;13.028;2022-11-04T08:22:36;12.50;1.00
22578;DHT22;11455;52.390;13.028;2022-11-04T08:25:02;12.50;1.00
22578;DHT22;11455;52.390;13.028;2022-11-04T08:27:31;12.50;1.00
22578;DHT22;11455;52.390;13.028;2022-11-04T08:29:57;12.50;1.00
22578;DHT22;11455;52.390;13.028;2022-11-04T08:32:22;12.60;1.00
22578;DHT22;11455;52.390;13.028;2022-11-04T08:34:48;12.50;1.00
22578;DHT22;11455;52.390;13.028;2022-11-04T08:37:14;12.50;1.00
22578;DHT22;11455;52.390;13.028;2022-11-04T08:39:40;12.50;1.00
22578;DHT22;11455;52.390;13.028;2022-11-04T08:42:05;12.60;1.00
22578;DHT22;11455;52.390;13.028;2022-11-04T08:44:31;12.60;1.00
22578;DHT22;11455;52.390;13.028;2022-11-04T08:46:58;12.70;1.00
22578;DHT22;11455;52.390;13.028;2022-11-04T08:49:23;12.70;1.00
22578;DHT22;11455;52.390;13.028;2022-11-04T08:51:49;12.70;1.00
22578;DHT22;11455;52.390;13.028;2022-11-04T08:54:21;12.80;1.00
22578;DHT22;11455;52.390;13.028;2022-11-04T08:56:47;12.70;1.00
22578;DHT22;11455;52.390;13.028;2022-11-04T08:59:13;12.70;1.00
22578;DHT22;11455;52.390;13.028;2022-11-04T09:01:39;12.70;1.00
22578;DHT22;11455;52.390;13.028;2022-11-04T09:04:05;12.70;1.00
22578;DHT22;11455;52.390;13.028;2022-11-04T09:06:35;12.70;1.00
22578;DHT22;11455;52.390;13.028;2022-11-04T09:09:01;12.70;1.00
22578;DHT22;11455;52.390;13.028;2022-11-04T09:11:32;12.60;1.00
22578;DHT22;11455;52.390;13.028;2022-11-04T09:14:01;12.60;1.00
22578;DHT22;11455;52.390;13.028;2022-11-04T09:16:28;12.70;1.00
22578;DHT22;11455;52.390;13.028;2022-11-04T09:18:54;12.60;1.00
22578;DHT22;11455;52.390;13.028;2022-11-04T09:21:20;12.60;1.00
22578;DHT22;11455;52.390;13.028;2022-11-04T09:23:46;12.60;1.00
22578;DHT22;11455;52.390;13.028;2022-11-04T09:26:12;12.60;1.00
22578;DHT22;11455;52.390;13.028;2022-11-04T09:28:39;12.60;1.00
22578;DHT22;11455;52.390;13.028;2022-11-04T09:31:06;12.60;1.00
22578;DHT22;11455;52.390;13.028;2022-11-04T09:33:31;12.60;1.00
22578;DHT22;11455;52.390;13.028;2022-11-04T09:36:00;12.50;1.00
22578;DHT22;11455;52.390;13.028;2022-11-04T09:38:29;12.50;1.00
22578;DHT22;11455;52.390;13.028;2022-11-04T09:40:55;12.50;1.00
22578;DHT22;11455;52.390;13.028;2022-11-04T09:46:00;12.40;1.00
22578;DHT22;11455;52.390;13.028;2022-11-04T09:48:48;12.40;1.00
22578;DHT22;11455;52.390;13.028;2022-11-04T09:51:12;12.40;1.00
22578;DHT22;11455;52.390;13.028;2022-11-04T09:53:50;12.40;1.00
22578;DHT22;11455;52.390;13.028;2022-11-04T09:56:24;12.40;1.00
22578;DHT22;11455;52.390;13.028;2022-11-04T09:58:52;12.40;1.00
22578;DHT22;11455;52.390;13.028;2022-11-04T10:06:32;12.40;1.00
22578;DHT22;11455;52.390;13.028;2022-11-04T10:24:23;12.40;1.00
22578;DHT22;11455;52.390;13.028;2022-11-04T10:26:55;12.40;1.00
22578;DHT22;11455;52.390;13.028;2022-11-04T10:29:27;12.50;1.00
22578;DHT22;11455;52.390;13.028;2022-11-04T10:31:54;12.60;1.00
22578;DHT22;11455;52.390;13.028;2022-11-04T10:36:49;12.60;1.00
22578;DHT22;11455;52.390;13.028;2022-11-04T10:39:19;12.70;1.00
22578;DHT22;11455;52.390;13.028;2022-11-04T10:41:47;12.70;1.00
22578;DHT22;11455;52.390;13.028;2022-11-04T10:46:53;12.70;1.00
22578;DHT22;11455;52.390;13.028;2022-11-04T10:51:45;12.70;1.00
22578;DHT22;11455;52.390;13.028;2022-11-04T10:54:16;12.70;1.00
22578;DHT22;11455;52.390;13.028;2022-11-04T10:56:48;12.50;1.00
22578;DHT22;11455;52.390;13.028;2022-11-04T11:02:16;12.40;1.00
22578;DHT22;11455;52.390;13.028;2022-11-04T11:04:35;12.40;1.00
22578;DHT22;11455;52.390;13.028;2022-11-04T11:07:05;12.40;1.00
22578;DHT22;11455;52.390;13.028;2022-11-04T11:10:14;12.40;1.00
22578;DHT22;11455;52.390;13.028;2022-11-04T11:12:27;12.50;1.00
22578;DHT22;11455;52.390;13.028;2022-11-04T11:14:57;12.60;1.00
22578;DHT22;11455;52.390;13.028;2022-11-04T11:24:51;12.90;1.00
22578;DHT22;11455;52.390;13.028;2022-11-04T11:27:17;12.90;99.90
22578;DHT22;11455;52.390;13.028;2022-11-04T11:29:46;12.90;99.90
22578;DHT22;11455;52.390;13.028;2022-11-04T11:34:52;12.90;99.90
22578;DHT22;11455;52.390;13.028;2022-11-04T11:37:18;12.90;99.90
22578;DHT22;11455;52.390;13.028;2022-11-04T11:39:48;12.90;99.90
22578;DHT22;11455;52.390;13.028;2022-11-04T11:42:14;12.90;99.90
22578;DHT22;11455;52.390;13.028;2022-11-04T11:44:47;12.90;99.90
22578;DHT22;11455;52.390;13.028;2022-11-04T11:47:21;12.90;99.90
22578;DHT22;11455;52.390;13.028;2022-11-04T11:50:03;12.90;99.90
22578;DHT22;11455;52.390;13.028;2022-11-04T11:52:31;12.90;99.90
22578;DHT22;11455;52.390;13.028;2022-11-04T11:55:00;12.90;99.90
22578;DHT22;11455;52.390;13.028;2022-11-04T11:57:39;12.90;99.90
22578;DHT22;11455;52.390;13.028;2022-11-04T12:00:09;12.90;99.90
22578;DHT22;11455;52.390;13.028;2022-11-04T12:02:57;12.90;99.90
22578;DHT22;11455;52.390;13.028;2022-11-04T12:05:26;12.80;99.90
22578;DHT22;11455;52.390;13.028;2022-11-04T12:10:27;12.90;99.90
22578;DHT22;11455;52.390;13.028;2022-11-04T12:12:55;12.90;99.90
22578;DHT22;11455;52.390;13.028;2022-11-04T12:15:31;12.90;99.90
22578;DHT22;11455;52.390;13.028;2022-11-04T12:18:07;12.90;99.90
22578;DHT22;11455;52.390;13.028;2022-11-04T12:20:53;12.90;99.90
22578;DHT22;11455;52.390;13.028;2022-11-04T12:31:23;12.60;1.00
22578;DHT22;11455;52.390;13.028;2022-11-04T12:34:02;12.70;1.00
22578;DHT22;11455;52.390;13.028;2022-11-04T12:52:03;12.80;99.90
22578;DHT22;11455;52.390;13.028;2022-11-04T13:02:29;13.00;99.90
22578;DHT22;11455;52.390;13.028;2022-11-04T13:05:02;13.00;99.90
22578;DHT22;11455;52.390;13.028;2022-11-04T13:07:39;13.00;99.90
22578;DHT22;11455;52.390;13.028;2022-11-04T13:10:07;13.00;99.90
22578;DHT22;11455;52.390;13.028;2022-11-04T13:12:37;13.00;99.90
22578;DHT22;11455;52.390;13.028;2022-11-04T13:15:04;13.00;99.90
22578;DHT22;11455;52.390;13.028;2022-11-04T13:17:33;12.90;99.90
22578;DHT22;11455;52.390;13.028;2022-11-04T13:20:12;12.90;99.90
22578;DHT22;11455;52.390;13.028;2022-11-04T13:22:40;12.90;99.90
22578;DHT22;11455;52.390;13.028;2022-11-04T13:25:15;12.90;99.90
22578;DHT22;11455;52.390;13.028;2022-11-04T13:27:43;12.90;99.90
22578;DHT22;11455;52.390;13.028;2022-11-04T13:38:34;12.90;99.90
22578;DHT22;11455;52.390;13.028;2022-11-04T13:43:30;12.90;99.90
22578;DHT22;11455;52.390;13.028;2022-11-04T13:46:04;12.90;99.90
22578;DHT22;11455;52.390;13.028;2022-11-04T13:48:33;12.90;99.90
22578;DHT22;11455;52.390;13.028;2022-11-04T13:51:09;12.90;99.90
22578;DHT22;11455;52.390;13.028;2022-11-04T13:53:45;12.90;99.90
22578;DHT22;11455;52.390;13.028;2022-11-04T13:59:03;12.90;99.90
22578;DHT22;11455;52.390;13.028;2022-11-04T14:01:31;12.80;99.90
22578;DHT22;11455;52.390;13.028;2022-11-04T14:04:02;12.80;99.90
22578;DHT22;11455;52.390;13.028;2022-11-04T14:14:54;12.60;1.00
22578;DHT22;11455;52.390;13.028;2022-11-04T14:25:18;12.70;1.00
22578;DHT22;11455;52.390;13.028;2022-11-04T14:27:45;12.70;1.00
22578;DHT22;11455;52.390;13.028;2022-11-04T14:32:54;12.70;1.00
22578;DHT22;11455;52.390;13.028;2022-11-04T14:35:20;12.70;1.00
22578;DHT22;11455;52.390;13.028;2022-11-04T14:37:45;12.80;1.00
22578;DHT22;11455;52.390;13.028;2022-11-04T14:40:26;12.80;1.00
22578;DHT22;11455;52.390;13.028;2022-11-04T14:42:56;12.70;1.00
22578;DHT22;11455;52.390;13.028;2022-11-04T14:45:26;12.70;1.00
22578;DHT22;11455;52.390;13.028;2022-11-04T14:48:14;12.70;1.00
22578;DHT22;11455;52.390;13.028;2022-11-04T14:50:41;12.80;1.00
22578;DHT22;11455;52.390;13.028;2022-11-04T14:53:08;12.70;1.00
22578;DHT22;11455;52.390;13.028;2022-11-04T14:55:38;12.70;1.00
22578;DHT22;11455;52.390;13.028;2022-11-04T14:58:37;12.70;1.00
22578;DHT22;11455;52.390;13.028;2022-11-04T15:00:57;12.70;1.00
22578;DHT22;11455;52.390;13.028;2022-11-04T15:03:25;12.70;1.00
22578;DHT22;11455;52.390;13.028;2022-11-04T15:05:58;12.70;1.00
22578;DHT22;11455;52.390;13.028;2022-11-04T15:10:58;12.70;1.00
22578;DHT22;11455;52.390;13.028;2022-11-04T15:13:31;12.70;99.90
22578;DHT22;11455;52.390;13.028;2022-11-04T15:15:56;12.60;1.00
22578;DHT22;11455;52.390;13.028;2022-11-04T15:18:24;12.60;1.00
22578;DHT22;11455;52.390;13.028;2022-11-04T15:20:52;12.50;1.00
22578;DHT22;11455;52.390;13.028;2022-11-04T15:23:21;12.60;1.00
22578;DHT22;11455;52.390;13.028;2022-11-04T15:25:50;12.50;1.00
22578;DHT22;11455;52.390;13.028;2022-11-04T15:28:18;12.50;1.00
22578;DHT22;11455;52.390;13.028;2022-11-04T15:30:54;12.50;1.00
22578;DHT22;11455;52.390;13.028;2022-11-04T15:33:24;12.50;1.00
22578;DHT22;11455;52.390;13.028;2022-11-04T15:35:49;12.50;1.00
22578;DHT22;11455;52.390;13.028;2022-11-04T15:38:16;12.50;99.90
22578;DHT22;11455;52.390;13.028;2022-11-04T15:40:42;12.50;99.90
22578;DHT22;11455;52.390;13.028;2022-11-04T15:43:08;12.60;99.90
22578;DHT22;11455;52.390;13.028;2022-11-04T15:45:38;12.60;99.90
22578;DHT22;11455;52.390;13.028;2022-11-04T15:48:30;12.50;99.90
22578;DHT22;11455;52.390;13.028;2022-11-04T15:53:33;12.50;99.90
22578;DHT22;11455;52.390;13.028;2022-11-04T15:55:59;12.50;99.90
22578;DHT22;11455;52.390;13.028;2022-11-04T15:58:28;12.50;99.90
22578;DHT22;11455;52.390;13.028;2022-11-04T16:00:55;12.40;99.90
22578;DHT22;11455;52.390;13.028;2022-11-04T16:03:22;12.40;1.00
22578;DHT22;11455;52.390;13.028;2022-11-04T16:06:02;12.40;1.00
22578;DHT22;11455;52.390;13.028;2022-11-04T16:08:31;12.50;1.00
22578;DHT22;11455;52.390;13.028;2022-11-04T16:14:13;12.50;99.90
22578;DHT22;11455;52.390;13.028;2022-11-04T16:16:39;12.40;99.90
22578;DHT22;11455;52.390;13.028;2022-11-04T16:19:19;12.50;99.90
22578;DHT22;11455;52.390;13.028;2022-11-04T16:21:55;12.50;1.00
22578;DHT22;11455;52.390;13.028;2022-11-04T16:24:32;12.50;99.90
22578;DHT22;11455;52.390;13.028;2022-11-04T16:26:59;12.50;99.90
22578;DHT22;11455;52.390;13.028;2022-11-04T16:29:31;12.50;99.90
22578;DHT22;11455;52.390;13.028;2022-11-04T16:32:17;12.50;99.90
22578;DHT22;11455;52.390;13.028;2022-11-04T16:34:44;12.50;99.90
22578;DHT22;11455;52.390;13.028;2022-11-04T16:37:11;12.50;99.90
22578;DHT22;11455;52.390;13.028;2022-11-04T16:39:37;12.40;99.90
22578;DHT22;11455;52.390;13.028;2022-11-04T16:42:06;12.40;99.90
22578;DHT22;11455;52.390;13.028;2022-11-04T16:44:31;12.30;99.90
22578;DHT22;11455;52.390;13.028;2022-11-04T16:46:57;12.20;99.90
22578;DHT22;11455;52.390;13.028;2022-11-04T16:49:24;12.20;99.90
22578;DHT22;11455;52.390;13.028;2022-11-04T16:51:52;12.20;99.90
22578;DHT22;11455;52.390;13.028;2022-11-04T16:54:21;12.20;99.90
22578;DHT22;11455;52.390;13.028;2022-11-04T16:56:47;12.20;99.90
22578;DHT22;11455;52.390;13.028;2022-11-04T16:59:12;12.20;99.90
22578;DHT22;11455;52.390;13.028;2022-11-04T17:01:38;12.10;99.90
22578;DHT22;11455;52.390;13.028;2022-11-04T17:04:07;12.10;99.90
22578;DHT22;11455;52.390;13.028;2022-11-04T17:06:32;12.10;99.90
22578;DHT22;11455;52.390;13.028;2022-11-04T17:08:59;12.10;99.90
22578;DHT22;11455;52.390;13.028;2022-11-04T17:11:27;12.10;99.90
22578;DHT22;11455;52.390;13.028;2022-11-04T17:13:54;12.20;99.90
22578;DHT22;11455;52.390;13.028;2022-11-04T17:16:20;12.20;99.90
22578;DHT22;11455;52.390;13.028;2022-11-04T17:18:45;12.10;99.90
22578;DHT22;11455;52.390;13.028;2022-11-04T17:21:12;12.10;99.90
22578;DHT22;11455;52.390;13.028;2022-11-04T17:23:40;12.00;99.90
22578;DHT22;11455;52.390;13.028;2022-11-04T17:26:06;12.00;99.90
22578;DHT22;11455;52.390;13.028;2022-11-04T17:28:31;11.90;99.90
22578;DHT22;11455;52.390;13.028;2022-11-04T17:30:57;11.90;1.00
22578;DHT22;11455;52.390;13.028;2022-11-04T17:33:23;11.90;1.00
22578;DHT22;11455;52.390;13.028;2022-11-04T17:35:51;11.90;1.00
22578;DHT22;11455;52.390;13.028;2022-11-04T17:38:19;11.90;1.00
22578;DHT22;11455;52.390;13.028;2022-11-04T17:40:45;12.00;99.90
22578;DHT22;11455;52.390;13.028;2022-11-04T17:43:29;12.00;99.90
22578;DHT22;11455;52.390;13.028;2022-11-04T17:46:13;12.10;99.90
22578;DHT22;11455;52.390;13.028;2022-11-04T17:48:58;12.20;99.90
22578;DHT22;11455;52.390;13.028;2022-11-04T17:51:23;12.20;99.90
22578;DHT22;11455;52.390;13.028;2022-11-04T17:53:49;12.20;99.90
22578;DHT22;11455;52.390;13.028;2022-11-04T17:56:15;12.20;99.90
22578;DHT22;11455;52.390;13.028;2022-11-04T17:58:43;12.20;99.90
22578;DHT22;11455;52.390;13.028;2022-11-04T18:01:09;12.20;99.90
22578;DHT22;11455;52.390;13.028;2022-11-04T18:03:35;12.20;99.90
22578;DHT22;11455;52.390;13.028;2022-11-04T18:06:01;12.10;99.90
22578;DHT22;11455;52.390;13.028;2022-11-04T18:08:27;12.00;99.90
22578;DHT22;11455;52.390;13.028;2022-11-04T18:10:56;12.10;1.00
22578;DHT22;11455;52.390;13.028;2022-11-04T18:13:22;12.10;99.90
22578;DHT22;11455;52.390;13.028;2022-11-04T18:15:47;12.10;99.90
22578;DHT22;11455;52.390;13.028;2022-11-04T18:18:13;12.10;99.90